sensor_id;sensor_type;location;lat;lon;timestamp;temperature;humidity
11838;DHT22;5978;51.020;6.764;2023-05-16T00:01:52;12.90;99.90
11838;DHT22;5978;51.020;6.764;2023-05-16T00:04:18;12.90;99.90
11838;DHT22;5978;51.020;6.764;2023-05-16T00:06:44;12.90;99.90
11838;DHT22;5978;51.020;6.764;2023-05-16T00:09:10;12.80;99.90
11838;DHT22;5978;51.020;6.764;2023-05-16T00:11:36;12.90;99.90
11838;DHT22;5978;51.020;6.764;2023-05-16T00:14:01;12.90;99.90
11838;DHT22;5978;51.020;6.764;2023-05-16T00:16:28;12.80;99.90
11838;DHT22;5978;51.020;6.764;2023-05-16T00:18:55;12.70;99.90
11838;DHT22;5978;51.020;6.764;2023-05-16T00:21:22;12.60;99.90
11838;DHT22;5978;51.020;6.764;2023-05-16T00:23:48;12.70;99.90
11838;DHT22;5978;51.020;6.764;2023-05-16T00:26:14;12.70;99.90
11838;DHT22;5978;51.020;6.764;2023-05-16T00:28:39;12.70;99.90
11838;DHT22;5978;51.020;6.764;2023-05-16T00:31:05;12.60;99.90
11838;DHT22;5978;51.020;6.764;2023-05-16T00:33:31;12.50;99.90
11838;DHT22;5978;51.020;6.764;2023-05-16T00:35:57;12.50;99.90
11838;DHT22;5978;51.020;6.764;2023-05-16T00:38:24;12.50;99.90
11838;DHT22;5978;51.020;6.764;2023-05-16T00:40:50;12.50;99.90
11838;DHT22;5978;51.020;6.764;2023-05-16T00:43:16;12.50;99.90
11838;DHT22;5978;51.020;6.764;2023-05-16T00:45:42;12.40;99.90
11838;DHT22;5978;51.020;6.764;2023-05-16T00:48:08;12.40;99.90
11838;DHT22;5978;51.020;6.764;2023-05-16T00:50:35;12.40;99.90
11838;DHT22;5978;51.020;6.764;2023-05-16T00:53:01;12.30;99.90
11838;DHT22;5978;51.020;6.764;2023-05-16T00:55:27;12.30;99.90
11838;DHT22;5978;51.020;6.764;2023-05-16T00:57:53;12.20;99.90
11838;DHT22;5978;51.020;6.764;2023-05-16T01:00:19;12.10;99.90
11838;DHT22;5978;51.020;6.764;2023-05-16T01:02:45;12.10;99.90
11838;DHT22;5978;51.020;6.764;2023-05-16T01:05:12;11.90;99.90
11838;DHT22;5978;51.020;6.764;2023-05-16T01:07:38;11.80;99.90
11838;DHT22;5978;51.020;6.764;2023-05-16T01:10:04;11.80;99.90
11838;DHT22;5978;51.020;6.764;2023-05-16T01:13:14;11.80;99.90
11838;DHT22;5978;51.020;6.764;2023-05-16T01:15:47;11.80;99.90
11838;DHT22;5978;51.020;6.764;2023-05-16T01:18:24;11.70;99.90
11838;DHT22;5978;51.020;6.764;2023-05-16T01:21:03;11.60;99.90
11838;DHT22;5978;51.020;6.764;2023-05-16T01:26:21;11.50;99.90
11838;DHT22;5978;51.020;6.764;2023-05-16T01:28:49;11.40;99.90
11838;DHT22;5978;51.020;6.764;2023-05-16T01:31:15;11.50;99.90
11838;DHT22;5978;51.020;6.764;2023-05-16T01:33:41;11.50;99.90
11838;DHT22;5978;51.020;6.764;2023-05-16T01:39:00;11.40;99.90
11838;DHT22;5978;51.020;6.764;2023-05-16T01:41:58;11.50;99.90
11838;DHT22;5978;51.020;6.764;2023-05-16T01:44:41;11.40;99.90
11838;DHT22;5978;51.020;6.764;2023-05-16T01:47:13;11.40;99.90
11838;DHT22;5978;51.020;6.764;2023-05-16T01:52:37;11.30;99.90
11838;DHT22;5978;51.020;6.764;2023-05-16T01:55:09;11.40;99.90
11838;DHT22;5978;51.020;6.764;2023-05-16T01:57:35;11.40;99.90
11838;DHT22;5978;51.020;6.764;2023-05-16T02:00:02;11.30;99.90
11838;DHT22;5978;51.020;6.764;2023-05-16T02:02:28;11.30;99.90
11838;DHT22;5978;51.020;6.764;2023-05-16T02:04:55;11.30;99.90
11838;DHT22;5978;51.020;6.764;2023-05-16T02:07:21;11.20;99.90
11838;DHT22;5978;51.020;6.764;2023-05-16T02:09:47;11.20;99.90
11838;DHT22;5978;51.020;6.764;2023-05-16T02:12:13;11.10;99.90
11838;DHT22;5978;51.020;6.764;2023-05-16T02:14:39;11.10;99.90
11838;DHT22;5978;51.020;6.764;2023-05-16T02:17:04;11.00;99.90
11838;DHT22;5978;51.020;6.764;2023-05-16T02:19:30;11.10;99.90
11838;DHT22;5978;51.020;6.764;2023-05-16T02:21:56;11.00;99.90
11838;DHT22;5978;51.020;6.764;2023-05-16T02:24:21;10.90;99.90
11838;DHT22;5978;51.020;6.764;2023-05-16T02:26:47;11.00;99.90
11838;DHT22;5978;51.020;6.764;2023-05-16T02:29:13;11.00;99.90
11838;DHT22;5978;51.020;6.764;2023-05-16T02:31:41;11.00;99.90
11838;DHT22;5978;51.020;6.764;2023-05-16T02:34:07;11.00;99.90
11838;DHT22;5978;51.020;6.764;2023-05-16T02:36:33;10.90;99.90
11838;DHT22;5978;51.020;6.764;2023-05-16T02:39:01;10.80;99.90
11838;DHT22;5978;51.020;6.764;2023-05-16T02:41:27;10.80;99.90
11838;DHT22;5978;51.020;6.764;2023-05-16T02:43:52;10.80;99.90
11838;DHT22;5978;51.020;6.764;2023-05-16T02:46:29;10.80;99.90
11838;DHT22;5978;51.020;6.764;2023-05-16T02:48:55;10.80;99.90
11838;DHT22;5978;51.020;6.764;2023-05-16T02:51:23;10.70;99.90
11838;DHT22;5978;51.020;6.764;2023-05-16T02:53:49;10.70;99.90
11838;DHT22;5978;51.020;6.764;2023-05-16T02:56:15;10.60;99.90
11838;DHT22;5978;51.020;6.764;2023-05-16T02:58:41;10.70;99.90
11838;DHT22;5978;51.020;6.764;2023-05-16T03:01:07;10.80;99.90
11838;DHT22;5978;51.020;6.764;2023-05-16T03:03:34;10.80;99.90
11838;DHT22;5978;51.020;6.764;2023-05-16T03:06:01;10.70;99.90
11838;DHT22;5978;51.020;6.764;2023-05-16T03:08:27;10.60;99.90
11838;DHT22;5978;51.020;6.764;2023-05-16T03:10:52;10.60;99.90
11838;DHT22;5978;51.020;6.764;2023-05-16T03:13:18;10.50;99.90
11838;DHT22;5978;51.020;6.764;2023-05-16T03:15:44;10.40;99.90
11838;DHT22;5978;51.020;6.764;2023-05-16T03:18:10;10.40;99.90
11838;DHT22;5978;51.020;6.764;2023-05-16T03:20:36;10.40;99.90
11838;DHT22;5978;51.020;6.764;2023-05-16T03:23:02;10.30;99.90
11838;DHT22;5978;51.020;6.764;2023-05-16T03:25:32;10.40;99.90
11838;DHT22;5978;51.020;6.764;2023-05-16T03:27:57;10.40;99.90
11838;DHT22;5978;51.020;6.764;2023-05-16T03:30:23;10.40;99.90
11838;DHT22;5978;51.020;6.764;2023-05-16T03:32:51;10.50;99.90
11838;DHT22;5978;51.020;6.764;2023-05-16T03:35:16;10.50;99.90
11838;DHT22;5978;51.020;6.764;2023-05-16T03:37:42;10.60;99.90
11838;DHT22;5978;51.020;6.764;2023-05-16T03:40:08;10.70;99.90
11838;DHT22;5978;51.020;6.764;2023-05-16T03:42:33;10.70;99.90
11838;DHT22;5978;51.020;6.764;2023-05-16T03:44:59;10.60;99.90
11838;DHT22;5978;51.020;6.764;2023-05-16T03:47:25;10.70;99.90
11838;DHT22;5978;51.020;6.764;2023-05-16T03:49:51;10.60;99.90
11838;DHT22;5978;51.020;6.764;2023-05-16T03:52:17;10.60;99.90
11838;DHT22;5978;51.020;6.764;2023-05-16T03:54:43;10.60;99.90
11838;DHT22;5978;51.020;6.764;2023-05-16T03:57:09;10.60;99.90
11838;DHT22;5978;51.020;6.764;2023-05-16T03:59:35;10.60;99.90
11838;DHT22;5978;51.020;6.764;2023-05-16T04:02:00;10.60;99.90
11838;DHT22;5978;51.020;6.764;2023-05-16T04:04:26;10.60;99.90
11838;DHT22;5978;51.020;6.764;2023-05-16T04:06:52;10.60;99.90
11838;DHT22;5978;51.020;6.764;2023-05-16T04:09:18;10.60;99.90
11838;DHT22;5978;51.020;6.764;2023-05-16T04:11:44;10.60;99.90
11838;DHT22;5978;51.020;6.764;2023-05-16T04:14:10;10.50;99.90
11838;DHT22;5978;51.020;6.764;2023-05-16T04:16:36;10.40;99.90
11838;DHT22;5978;51.020;6.764;2023-05-16T04:19:01;10.40;99.90
11838;DHT22;5978;51.020;6.764;2023-05-16T04:21:28;10.40;99.90
11838;DHT22;5978;51.020;6.764;2023-05-16T04:23:54;10.40;99.90
11838;DHT22;5978;51.020;6.764;2023-05-16T04:26:19;10.50;99.90
11838;DHT22;5978;51.020;6.764;2023-05-16T04:28:47;10.40;99.90
11838;DHT22;5978;51.020;6.764;2023-05-16T04:31:12;10.30;99.90
11838;DHT22;5978;51.020;6.764;2023-05-16T04:33:38;10.20;99.90
11838;DHT22;5978;51.020;6.764;2023-05-16T04:36:04;10.10;99.90
11838;DHT22;5978;51.020;6.764;2023-05-16T04:38:30;10.00;99.90
11838;DHT22;5978;51.020;6.764;2023-05-16T04:40:57;10.00;99.90
11838;DHT22;5978;51.020;6.764;2023-05-16T04:43:23;10.00;99.90
11838;DHT22;5978;51.020;6.764;2023-05-16T04:45:48;10.00;99.90
11838;DHT22;5978;51.020;6.764;2023-05-16T04:48:15;10.10;99.90
11838;DHT22;5978;51.020;6.764;2023-05-16T04:50:40;10.10;99.90
11838;DHT22;5978;51.020;6.764;2023-05-16T04:53:06;10.00;99.90
11838;DHT22;5978;51.020;6.764;2023-05-16T04:55:32;9.90;99.90
11838;DHT22;5978;51.020;6.764;2023-05-16T04:57:58;9.90;99.90
11838;DHT22;5978;51.020;6.764;2023-05-16T05:00:23;9.90;99.90
11838;DHT22;5978;51.020;6.764;2023-05-16T05:02:49;9.90;99.90
11838;DHT22;5978;51.020;6.764;2023-05-16T05:05:15;9.90;99.90
11838;DHT22;5978;51.020;6.764;2023-05-16T05:07:41;9.90;99.90
11838;DHT22;5978;51.020;6.764;2023-05-16T05:10:08;9.80;99.90
11838;DHT22;5978;51.020;6.764;2023-05-16T05:12:34;9.90;99.90
11838;DHT22;5978;51.020;6.764;2023-05-16T05:15:00;9.90;99.90
11838;DHT22;5978;51.020;6.764;2023-05-16T05:17:26;9.90;99.90
11838;DHT22;5978;51.020;6.764;2023-05-16T05:19:52;10.00;99.90
11838;DHT22;5978;51.020;6.764;2023-05-16T05:22:17;10.00;99.90
11838;DHT22;5978;51.020;6.764;2023-05-16T05:24:43;10.00;99.90
11838;DHT22;5978;51.020;6.764;2023-05-16T05:27:09;10.10;99.90
11838;DHT22;5978;51.020;6.764;2023-05-16T05:29:35;10.10;99.90
11838;DHT22;5978;51.020;6.764;2023-05-16T05:32:00;10.10;99.90
11838;DHT22;5978;51.020;6.764;2023-05-16T05:34:26;10.10;99.90
11838;DHT22;5978;51.020;6.764;2023-05-16T05:36:52;10.10;99.90
11838;DHT22;5978;51.020;6.764;2023-05-16T05:39:18;10.10;99.90
11838;DHT22;5978;51.020;6.764;2023-05-16T05:41:44;10.20;99.90
11838;DHT22;5978;51.020;6.764;2023-05-16T05:44:10;10.20;99.90
11838;DHT22;5978;51.020;6.764;2023-05-16T05:46:36;10.20;99.90
11838;DHT22;5978;51.020;6.764;2023-05-16T05:49:02;10.20;99.90
11838;DHT22;5978;51.020;6.764;2023-05-16T05:51:28;10.30;99.90
11838;DHT22;5978;51.020;6.764;2023-05-16T05:53:53;10.40;99.90
11838;DHT22;5978;51.020;6.764;2023-05-16T05:56:20;10.50;99.90
11838;DHT22;5978;51.020;6.764;2023-05-16T05:58:46;10.70;99.90
11838;DHT22;5978;51.020;6.764;2023-05-16T06:01:12;10.80;99.90
11838;DHT22;5978;51.020;6.764;2023-05-16T06:03:38;10.90;99.90
11838;DHT22;5978;51.020;6.764;2023-05-16T06:06:07;11.00;99.90
11838;DHT22;5978;51.020;6.764;2023-05-16T06:08:33;11.10;99.90
11838;DHT22;5978;51.020;6.764;2023-05-16T06:10:59;11.20;99.90
11838;DHT22;5978;51.020;6.764;2023-05-16T06:13:26;11.30;99.90
11838;DHT22;5978;51.020;6.764;2023-05-16T06:15:52;11.30;99.90
11838;DHT22;5978;51.020;6.764;2023-05-16T06:18:19;11.40;99.90
11838;DHT22;5978;51.020;6.764;2023-05-16T06:20:45;11.50;99.90
11838;DHT22;5978;51.020;6.764;2023-05-16T06:23:11;11.60;99.90
11838;DHT22;5978;51.020;6.764;2023-05-16T06:25:37;11.90;99.90
11838;DHT22;5978;51.020;6.764;2023-05-16T06:28:03;11.90;99.90
11838;DHT22;5978;51.020;6.764;2023-05-16T06:30:29;12.00;99.90
11838;DHT22;5978;51.020;6.764;2023-05-16T06:32:55;12.10;99.90
11838;DHT22;5978;51.020;6.764;2023-05-16T06:35:21;12.00;99.90
11838;DHT22;5978;51.020;6.764;2023-05-16T06:37:47;12.00;99.90
11838;DHT22;5978;51.020;6.764;2023-05-16T06:40:13;12.10;99.90
11838;DHT22;5978;51.020;6.764;2023-05-16T06:42:39;12.30;99.90
11838;DHT22;5978;51.020;6.764;2023-05-16T06:45:05;12.40;99.90
11838;DHT22;5978;51.020;6.764;2023-05-16T06:47:31;12.30;99.90
11838;DHT22;5978;51.020;6.764;2023-05-16T06:49:57;12.30;99.90
11838;DHT22;5978;51.020;6.764;2023-05-16T06:52:23;12.30;99.90
11838;DHT22;5978;51.020;6.764;2023-05-16T06:54:48;12.30;99.90
11838;DHT22;5978;51.020;6.764;2023-05-16T06:57:14;12.50;99.90
11838;DHT22;5978;51.020;6.764;2023-05-16T06:59:41;12.60;99.90
11838;DHT22;5978;51.020;6.764;2023-05-16T07:02:07;12.50;99.90
11838;DHT22;5978;51.020;6.764;2023-05-16T07:04:33;12.50;99.90
11838;DHT22;5978;51.020;6.764;2023-05-16T07:07:01;12.70;99.90
11838;DHT22;5978;51.020;6.764;2023-05-16T07:09:26;13.00;99.90
11838;DHT22;5978;51.020;6.764;2023-05-16T07:11:52;13.00;99.90
11838;DHT22;5978;51.020;6.764;2023-05-16T07:14:18;13.30;99.90
11838;DHT22;5978;51.020;6.764;2023-05-16T07:16:44;13.40;99.90
11838;DHT22;5978;51.020;6.764;2023-05-16T07:19:10;13.40;99.90
11838;DHT22;5978;51.020;6.764;2023-05-16T07:21:36;13.70;99.90
11838;DHT22;5978;51.020;6.764;2023-05-16T07:24:01;13.80;99.90
11838;DHT22;5978;51.020;6.764;2023-05-16T07:26:27;13.90;99.90
11838;DHT22;5978;51.020;6.764;2023-05-16T07:28:53;14.00;99.90
11838;DHT22;5978;51.020;6.764;2023-05-16T07:31:19;14.00;99.90
11838;DHT22;5978;51.020;6.764;2023-05-16T07:33:45;14.00;99.90
11838;DHT22;5978;51.020;6.764;2023-05-16T07:36:12;14.30;99.90
11838;DHT22;5978;51.020;6.764;2023-05-16T07:38:38;14.30;99.90
11838;DHT22;5978;51.020;6.764;2023-05-16T07:41:04;14.50;99.90
11838;DHT22;5978;51.020;6.764;2023-05-16T07:43:30;14.40;99.90
11838;DHT22;5978;51.020;6.764;2023-05-16T07:45:56;14.10;99.90
11838;DHT22;5978;51.020;6.764;2023-05-16T07:48:22;13.90;99.90
11838;DHT22;5978;51.020;6.764;2023-05-16T07:50:48;13.90;99.90
11838;DHT22;5978;51.020;6.764;2023-05-16T07:53:14;14.10;99.90
11838;DHT22;5978;51.020;6.764;2023-05-16T07:55:40;14.10;99.90
11838;DHT22;5978;51.020;6.764;2023-05-16T07:58:06;13.90;99.90
11838;DHT22;5978;51.020;6.764;2023-05-16T08:00:32;14.20;99.90
11838;DHT22;5978;51.020;6.764;2023-05-16T08:02:58;14.00;99.90
11838;DHT22;5978;51.020;6.764;2023-05-16T08:05:24;14.20;99.90
11838;DHT22;5978;51.020;6.764;2023-05-16T08:07:50;14.10;99.90
11838;DHT22;5978;51.020;6.764;2023-05-16T08:10:15;14.20;99.90
11838;DHT22;5978;51.020;6.764;2023-05-16T08:12:41;14.30;99.90
11838;DHT22;5978;51.020;6.764;2023-05-16T08:15:08;14.30;99.90
11838;DHT22;5978;51.020;6.764;2023-05-16T08:17:34;14.20;99.90
11838;DHT22;5978;51.020;6.764;2023-05-16T08:20:00;14.60;99.90
11838;DHT22;5978;51.020;6.764;2023-05-16T08:22:26;14.50;99.90
11838;DHT22;5978;51.020;6.764;2023-05-16T08:24:52;14.10;99.90
11838;DHT22;5978;51.020;6.764;2023-05-16T08:27:22;14.20;99.90
11838;DHT22;5978;51.020;6.764;2023-05-16T08:29:48;14.40;99.90
11838;DHT22;5978;51.020;6.764;2023-05-16T08:32:14;14.60;99.90
11838;DHT22;5978;51.020;6.764;2023-05-16T08:34:40;14.80;99.90
11838;DHT22;5978;51.020;6.764;2023-05-16T08:37:07;14.80;99.90
11838;DHT22;5978;51.020;6.764;2023-05-16T08:39:32;14.70;99.90
11838;DHT22;5978;51.020;6.764;2023-05-16T08:41:59;14.60;99.90
11838;DHT22;5978;51.020;6.764;2023-05-16T08:44:25;14.40;99.90
11838;DHT22;5978;51.020;6.764;2023-05-16T08:46:52;14.40;99.90
11838;DHT22;5978;51.020;6.764;2023-05-16T08:49:19;14.70;99.90
11838;DHT22;5978;51.020;6.764;2023-05-16T08:51:46;15.20;99.90
11838;DHT22;5978;51.020;6.764;2023-05-16T08:54:13;15.40;99.90
11838;DHT22;5978;51.020;6.764;2023-05-16T08:56:43;15.70;99.90
11838;DHT22;5978;51.020;6.764;2023-05-16T08:59:10;15.70;99.90
11838;DHT22;5978;51.020;6.764;2023-05-16T09:01:40;15.80;99.90
11838;DHT22;5978;51.020;6.764;2023-05-16T09:04:07;15.90;99.90
11838;DHT22;5978;51.020;6.764;2023-05-16T09:06:34;16.20;99.90
11838;DHT22;5978;51.020;6.764;2023-05-16T09:09:00;15.90;99.90
11838;DHT22;5978;51.020;6.764;2023-05-16T09:11:27;15.80;99.90
11838;DHT22;5978;51.020;6.764;2023-05-16T09:13:53;15.80;99.90
11838;DHT22;5978;51.020;6.764;2023-05-16T09:16:20;16.00;99.90
11838;DHT22;5978;51.020;6.764;2023-05-16T09:18:54;16.10;99.90
11838;DHT22;5978;51.020;6.764;2023-05-16T09:21:21;16.10;99.90
11838;DHT22;5978;51.020;6.764;2023-05-16T09:23:48;15.80;99.90
11838;DHT22;5978;51.020;6.764;2023-05-16T09:26:14;15.50;99.90
11838;DHT22;5978;51.020;6.764;2023-05-16T09:28:41;15.20;99.90
11838;DHT22;5978;51.020;6.764;2023-05-16T09:31:19;15.00;99.90
11838;DHT22;5978;51.020;6.764;2023-05-16T09:33:45;15.00;99.90
11838;DHT22;5978;51.020;6.764;2023-05-16T09:36:11;15.20;99.90
11838;DHT22;5978;51.020;6.764;2023-05-16T09:38:36;15.60;99.90
11838;DHT22;5978;51.020;6.764;2023-05-16T09:41:02;15.50;99.90
11838;DHT22;5978;51.020;6.764;2023-05-16T09:43:28;15.50;99.90
11838;DHT22;5978;51.020;6.764;2023-05-16T09:45:58;15.40;99.90
11838;DHT22;5978;51.020;6.764;2023-05-16T09:48:25;15.80;99.90
11838;DHT22;5978;51.020;6.764;2023-05-16T09:50:54;16.10;99.90
11838;DHT22;5978;51.020;6.764;2023-05-16T09:53:28;16.30;99.90
11838;DHT22;5978;51.020;6.764;2023-05-16T09:56:09;16.70;99.90
11838;DHT22;5978;51.020;6.764;2023-05-16T09:58:37;17.00;99.90
11838;DHT22;5978;51.020;6.764;2023-05-16T10:01:03;17.30;99.90
11838;DHT22;5978;51.020;6.764;2023-05-16T10:03:29;17.60;96.40
11838;DHT22;5978;51.020;6.764;2023-05-16T10:05:56;17.40;90.90
11838;DHT22;5978;51.020;6.764;2023-05-16T10:08:24;17.70;98.40
11838;DHT22;5978;51.020;6.764;2023-05-16T10:10:54;18.00;94.50
11838;DHT22;5978;51.020;6.764;2023-05-16T10:13:22;17.90;84.50
11838;DHT22;5978;51.020;6.764;2023-05-16T10:15:54;17.70;84.60
11838;DHT22;5978;51.020;6.764;2023-05-16T10:18:21;17.50;90.10
11838;DHT22;5978;51.020;6.764;2023-05-16T10:20:50;17.40;91.10
11838;DHT22;5978;51.020;6.764;2023-05-16T10:23:19;17.30;96.20
11838;DHT22;5978;51.020;6.764;2023-05-16T10:25:48;17.30;99.90
11838;DHT22;5978;51.020;6.764;2023-05-16T10:28:15;17.60;99.80
11838;DHT22;5978;51.020;6.764;2023-05-16T10:30:43;17.60;99.90
11838;DHT22;5978;51.020;6.764;2023-05-16T10:33:16;17.40;98.50
11838;DHT22;5978;51.020;6.764;2023-05-16T10:35:43;17.30;98.20
11838;DHT22;5978;51.020;6.764;2023-05-16T10:38:10;17.20;96.80
11838;DHT22;5978;51.020;6.764;2023-05-16T10:40:38;17.20;97.70
11838;DHT22;5978;51.020;6.764;2023-05-16T10:43:05;17.60;99.90
11838;DHT22;5978;51.020;6.764;2023-05-16T10:45:32;18.10;95.20
11838;DHT22;5978;51.020;6.764;2023-05-16T10:48:04;18.40;91.90
11838;DHT22;5978;51.020;6.764;2023-05-16T10:50:38;18.30;84.90
11838;DHT22;5978;51.020;6.764;2023-05-16T10:53:18;18.00;84.40
11838;DHT22;5978;51.020;6.764;2023-05-16T11:01:22;18.10;87.90
11838;DHT22;5978;51.020;6.764;2023-05-16T11:06:50;17.40;85.20
11838;DHT22;5978;51.020;6.764;2023-05-16T11:09:19;17.10;86.60
11838;DHT22;5978;51.020;6.764;2023-05-16T11:11:58;16.80;90.90
11838;DHT22;5978;51.020;6.764;2023-05-16T11:14:33;16.70;94.20
11838;DHT22;5978;51.020;6.764;2023-05-16T11:17:09;16.70;96.80
11838;DHT22;5978;51.020;6.764;2023-05-16T11:19:47;16.80;99.00
11838;DHT22;5978;51.020;6.764;2023-05-16T11:24:49;18.40;88.80
11838;DHT22;5978;51.020;6.764;2023-05-16T11:29:48;18.40;81.70
11838;DHT22;5978;51.020;6.764;2023-05-16T11:32:13;18.20;82.40
11838;DHT22;5978;51.020;6.764;2023-05-16T11:34:50;17.90;88.40
11838;DHT22;5978;51.020;6.764;2023-05-16T11:37:17;17.70;90.80
11838;DHT22;5978;51.020;6.764;2023-05-16T11:39:44;17.30;93.00
11838;DHT22;5978;51.020;6.764;2023-05-16T11:42:10;17.10;94.30
11838;DHT22;5978;51.020;6.764;2023-05-16T11:44:35;17.10;97.30
11838;DHT22;5978;51.020;6.764;2023-05-16T11:47:01;17.20;95.00
11838;DHT22;5978;51.020;6.764;2023-05-16T11:49:28;17.30;97.30
11838;DHT22;5978;51.020;6.764;2023-05-16T11:51:57;17.70;96.60
11838;DHT22;5978;51.020;6.764;2023-05-16T11:54:23;18.40;95.00
11838;DHT22;5978;51.020;6.764;2023-05-16T11:56:50;19.60;92.30
11838;DHT22;5978;51.020;6.764;2023-05-16T11:59:17;20.30;81.30
11838;DHT22;5978;51.020;6.764;2023-05-16T12:01:42;20.30;76.10
11838;DHT22;5978;51.020;6.764;2023-05-16T12:04:10;20.60;75.00
11838;DHT22;5978;51.020;6.764;2023-05-16T12:06:37;21.70;72.30
11838;DHT22;5978;51.020;6.764;2023-05-16T12:09:06;22.60;65.20
11838;DHT22;5978;51.020;6.764;2023-05-16T12:11:39;22.70;63.80
11838;DHT22;5978;51.020;6.764;2023-05-16T12:14:09;22.10;64.50
11838;DHT22;5978;51.020;6.764;2023-05-16T12:16:37;21.10;64.20
11838;DHT22;5978;51.020;6.764;2023-05-16T12:19:04;20.00;66.30
11838;DHT22;5978;51.020;6.764;2023-05-16T12:21:31;19.40;71.40
11838;DHT22;5978;51.020;6.764;2023-05-16T12:23:58;19.00;78.20
11838;DHT22;5978;51.020;6.764;2023-05-16T12:26:25;18.40;87.30
11838;DHT22;5978;51.020;6.764;2023-05-16T12:28:54;18.00;93.50
11838;DHT22;5978;51.020;6.764;2023-05-16T12:31:22;17.80;98.10
11838;DHT22;5978;51.020;6.764;2023-05-16T12:33:52;18.10;99.90
11838;DHT22;5978;51.020;6.764;2023-05-16T12:36:18;19.20;99.90
11838;DHT22;5978;51.020;6.764;2023-05-16T12:38:47;20.90;92.00
11838;DHT22;5978;51.020;6.764;2023-05-16T12:41:20;21.80;74.40
11838;DHT22;5978;51.020;6.764;2023-05-16T12:43:49;20.80;69.90
11838;DHT22;5978;51.020;6.764;2023-05-16T12:46:15;20.20;73.50
11838;DHT22;5978;51.020;6.764;2023-05-16T12:48:41;20.00;72.00
11838;DHT22;5978;51.020;6.764;2023-05-16T12:51:17;20.20;74.60
11838;DHT22;5978;51.020;6.764;2023-05-16T12:53:47;20.80;77.30
11838;DHT22;5978;51.020;6.764;2023-05-16T12:56:14;21.70;82.40
11838;DHT22;5978;51.020;6.764;2023-05-16T12:58:42;21.40;82.80
11838;DHT22;5978;51.020;6.764;2023-05-16T13:01:08;22.80;82.40
11838;DHT22;5978;51.020;6.764;2023-05-16T13:03:34;24.10;70.90
11838;DHT22;5978;51.020;6.764;2023-05-16T13:06:00;24.90;67.40
11838;DHT22;5978;51.020;6.764;2023-05-16T13:08:26;25.30;58.40
11838;DHT22;5978;51.020;6.764;2023-05-16T13:10:53;26.00;56.60
11838;DHT22;5978;51.020;6.764;2023-05-16T13:13:18;26.80;54.20
11838;DHT22;5978;51.020;6.764;2023-05-16T13:15:44;26.80;52.20
11838;DHT22;5978;51.020;6.764;2023-05-16T13:18:10;27.10;50.90
11838;DHT22;5978;51.020;6.764;2023-05-16T13:20:36;26.70;49.10
11838;DHT22;5978;51.020;6.764;2023-05-16T13:23:01;27.40;50.70
11838;DHT22;5978;51.020;6.764;2023-05-16T13:25:27;28.70;50.90
11838;DHT22;5978;51.020;6.764;2023-05-16T13:27:52;28.10;49.10
11838;DHT22;5978;51.020;6.764;2023-05-16T13:30:18;27.70;49.10
11838;DHT22;5978;51.020;6.764;2023-05-16T13:32:44;27.80;48.50
11838;DHT22;5978;51.020;6.764;2023-05-16T13:35:09;28.00;48.90
11838;DHT22;5978;51.020;6.764;2023-05-16T13:37:35;26.20;49.50
11838;DHT22;5978;51.020;6.764;2023-05-16T13:40:02;24.80;50.50
11838;DHT22;5978;51.020;6.764;2023-05-16T13:42:28;23.90;51.40
11838;DHT22;5978;51.020;6.764;2023-05-16T13:44:54;24.40;52.00
11838;DHT22;5978;51.020;6.764;2023-05-16T13:47:20;24.00;51.90
11838;DHT22;5978;51.020;6.764;2023-05-16T13:49:46;25.30;53.00
11838;DHT22;5978;51.020;6.764;2023-05-16T13:52:12;26.90;50.50
11838;DHT22;5978;51.020;6.764;2023-05-16T13:54:47;27.60;47.90
11838;DHT22;5978;51.020;6.764;2023-05-16T13:57:12;28.20;47.90
11838;DHT22;5978;51.020;6.764;2023-05-16T13:59:38;29.50;47.00
11838;DHT22;5978;51.020;6.764;2023-05-16T14:02:03;28.50;44.20
11838;DHT22;5978;51.020;6.764;2023-05-16T14:04:29;29.10;45.30
11838;DHT22;5978;51.020;6.764;2023-05-16T14:06:55;30.10;44.40
11838;DHT22;5978;51.020;6.764;2023-05-16T14:09:21;31.30;43.80
11838;DHT22;5978;51.020;6.764;2023-05-16T14:11:46;31.40;42.70
11838;DHT22;5978;51.020;6.764;2023-05-16T14:14:12;31.20;41.10
11838;DHT22;5978;51.020;6.764;2023-05-16T14:16:37;30.60;41.70
11838;DHT22;5978;51.020;6.764;2023-05-16T14:19:03;30.60;41.90
11838;DHT22;5978;51.020;6.764;2023-05-16T14:21:29;28.50;41.90
11838;DHT22;5978;51.020;6.764;2023-05-16T14:23:55;26.10;43.00
11838;DHT22;5978;51.020;6.764;2023-05-16T14:26:20;25.60;44.90
11838;DHT22;5978;51.020;6.764;2023-05-16T14:28:49;25.50;46.10
11838;DHT22;5978;51.020;6.764;2023-05-16T14:31:15;24.70;45.90
11838;DHT22;5978;51.020;6.764;2023-05-16T14:33:41;24.30;46.90
11838;DHT22;5978;51.020;6.764;2023-05-16T14:36:07;25.10;47.70
11838;DHT22;5978;51.020;6.764;2023-05-16T14:38:33;25.90;47.70
11838;DHT22;5978;51.020;6.764;2023-05-16T14:40:58;27.30;48.00
11838;DHT22;5978;51.020;6.764;2023-05-16T14:43:24;28.80;47.40
11838;DHT22;5978;51.020;6.764;2023-05-16T14:45:50;29.20;46.40
11838;DHT22;5978;51.020;6.764;2023-05-16T14:48:15;29.50;44.90
11838;DHT22;5978;51.020;6.764;2023-05-16T14:50:41;29.90;45.60
11838;DHT22;5978;51.020;6.764;2023-05-16T14:53:07;29.30;44.60
11838;DHT22;5978;51.020;6.764;2023-05-16T14:55:32;29.80;45.00
11838;DHT22;5978;51.020;6.764;2023-05-16T14:57:58;29.80;44.80
11838;DHT22;5978;51.020;6.764;2023-05-16T15:00:24;31.30;44.30
11838;DHT22;5978;51.020;6.764;2023-05-16T15:02:50;31.40;43.00
11838;DHT22;5978;51.020;6.764;2023-05-16T15:05:16;31.30;43.10
11838;DHT22;5978;51.020;6.764;2023-05-16T15:07:42;31.80;43.00
11838;DHT22;5978;51.020;6.764;2023-05-16T15:10:08;29.40;41.90
11838;DHT22;5978;51.020;6.764;2023-05-16T15:12:34;28.10;44.20
11838;DHT22;5978;51.020;6.764;2023-05-16T15:15:00;27.30;44.40
11838;DHT22;5978;51.020;6.764;2023-05-16T15:17:26;25.80;46.10
11838;DHT22;5978;51.020;6.764;2023-05-16T15:19:51;24.50;47.50
11838;DHT22;5978;51.020;6.764;2023-05-16T15:22:19;23.40;47.60
11838;DHT22;5978;51.020;6.764;2023-05-16T15:24:45;22.20;47.60
11838;DHT22;5978;51.020;6.764;2023-05-16T15:27:11;21.60;49.00
11838;DHT22;5978;51.020;6.764;2023-05-16T15:29:36;21.10;49.90
11838;DHT22;5978;51.020;6.764;2023-05-16T15:32:03;20.50;50.20
11838;DHT22;5978;51.020;6.764;2023-05-16T15:34:30;21.30;52.00
11838;DHT22;5978;51.020;6.764;2023-05-16T15:36:57;22.80;53.00
11838;DHT22;5978;51.020;6.764;2023-05-16T15:39:23;22.20;50.70
11838;DHT22;5978;51.020;6.764;2023-05-16T15:41:52;21.60;51.40
11838;DHT22;5978;51.020;6.764;2023-05-16T15:44:17;21.10;52.80
11838;DHT22;5978;51.020;6.764;2023-05-16T15:46:43;20.60;52.90
11838;DHT22;5978;51.020;6.764;2023-05-16T15:49:08;20.00;53.50
11838;DHT22;5978;51.020;6.764;2023-05-16T15:51:35;19.90;54.60
11838;DHT22;5978;51.020;6.764;2023-05-16T15:54:01;20.10;55.40
11838;DHT22;5978;51.020;6.764;2023-05-16T15:56:27;20.20;55.70
11838;DHT22;5978;51.020;6.764;2023-05-16T15:58:54;20.10;55.60
11838;DHT22;5978;51.020;6.764;2023-05-16T16:01:20;19.70;55.00
11838;DHT22;5978;51.020;6.764;2023-05-16T16:03:46;19.40;55.00
11838;DHT22;5978;51.020;6.764;2023-05-16T16:06:12;19.20;55.30
11838;DHT22;5978;51.020;6.764;2023-05-16T16:08:38;18.80;55.30